Time;durP1;ratioP1;P1;durP2;ratioP2;P2;SDS_P1;SDS_P2;PMS_P1;PMS_P2;Temp;Humidity;BMP_temperature;BMP_pressure;BME280_temperature;BME280_humidity;BME280_pressure;Samples;Min_cycle;Max_cycle;Signal;HPM_P1;HPM_P2
2023/03/18 00:06:15;;;;;;;2.15;1.65;;;;;;;17.71;51.37;100341.38;20863315;28;20578;-84
2023/03/18 00:16:18;;;;;;;2.07;1.83;;;;;;;17.61;51.26;100346.78;20881258;28;20523;-83
2023/03/18 00:26:20;;;;;;;2.72;1.77;;;;;;;17.65;51.48;100355.38;20881215;28;20041;-84
2023/03/18 00:36:25;;;;;;;2.20;1.60;;;;;;;17.69;51.31;100360.34;20861713;28;20041;-84
2023/03/18 00:46:28;;;;;;;2.40;1.65;;;;;;;17.65;51.47;100353.56;20878072;28;20044;-84
2023/03/18 00:56:30;;;;;;;2.60;1.73;;;;;;;17.69;51.76;100367.59;20860765;28;20071;-84
2023/03/18 01:06:36;;;;;;;2.00;1.58;;;;;;;17.69;51.66;100371.09;20877769;28;20052;-84
2023/03/18 01:16:37;;;;;;;2.40;1.90;;;;;;;17.68;51.67;100364.03;20859801;28;20045;-84
2023/03/18 01:26:39;;;;;;;2.10;1.55;;;;;;;17.68;51.65;100382.03;20859290;28;20045;-84
2023/03/18 01:36:41;;;;;;;1.70;1.60;;;;;;;17.68;51.84;100388.25;20875887;28;20523;-84
2023/03/18 01:46:45;;;;;;;2.33;1.60;;;;;;;17.67;51.89;100388.38;20875013;28;20481;-84
2023/03/18 01:56:51;;;;;;;2.33;1.40;;;;;;;17.64;51.74;100399.44;20847560;28;20049;-84
2023/03/18 02:06:53;;;;;;;1.80;1.40;;;;;;;17.63;51.85;100401.31;20841357;28;20472;-84
2023/03/18 02:17:01;;;;;;;2.63;1.83;;;;;;;17.65;51.84;100395.78;20838007;28;20128;-84
2023/03/18 02:27:17;;;;;;;1.83;1.48;;;;;;;17.61;51.83;100388.97;20835754;28;20045;-83
2023/03/18 02:37:20;;;;;;;1.77;1.50;;;;;;;17.63;52.09;100397.75;20852286;28;20512;-84
2023/03/18 02:47:25;;;;;;;3.17;1.70;;;;;;;17.62;51.96;100396.94;20866644;28;20048;-84
2023/03/18 02:57:27;;;;;;;2.92;1.80;;;;;;;17.45;51.98;100382.38;20843242;28;20045;-84
2023/03/18 03:07:30;;;;;;;3.35;2.22;;;;;;;17.62;52.08;100431.06;20844480;28;20033;-84
2023/03/18 03:17:36;;;;;;;2.05;1.42;;;;;;;17.62;52.02;100436.44;20864937;28;20125;-84
2023/03/18 03:27:38;;;;;;;1.67;1.33;;;;;;;17.61;51.98;100442.81;20860545;28;20064;-83
2023/03/18 03:37:41;;;;;;;2.58;1.80;;;;;;;17.43;52.19;100424.75;20847286;28;20053;-85
2023/03/18 03:47:45;;;;;;;2.63;1.88;;;;;;;17.60;52.30;100458.13;20870541;28;20440;-84
2023/03/18 03:57:50;;;;;;;3.85;2.20;;;;;;;17.50;52.21;100458.16;20830077;28;20131;-84
2023/03/18 04:07:52;;;;;;;2.40;1.80;;;;;;;17.59;52.23;100474.41;20904271;28;20110;-84
2023/03/18 04:18:05;;;;;;;2.83;2.08;;;;;;;17.56;52.23;100480.09;20862469;28;20532;-84
2023/03/18 04:28:11;;;;;;;3.07;1.60;;;;;;;17.58;52.28;100487.03;20839721;28;20040;-84
2023/03/18 04:38:13;;;;;;;1.80;1.45;;;;;;;17.58;52.33;100496.94;20834101;28;20052;-84
2023/03/18 04:48:17;;;;;;;2.67;1.90;;;;;;;17.54;52.41;100513.38;20864989;28;20485;-84
2023/03/18 04:58:19;;;;;;;2.17;1.98;;;;;;;17.56;52.57;100499.78;20845318;28;20501;-84
2023/03/18 05:08:34;;;;;;;2.78;1.85;;;;;;;17.56;52.52;100525.84;20857887;28;20049;-84
2023/03/18 05:18:37;;;;;;;3.15;2.15;;;;;;;17.56;52.60;100520.47;20855581;28;20095;-84
2023/03/18 05:28:43;;;;;;;2.10;1.50;;;;;;;17.55;52.72;100525.00;20832533;28;20055;-84
2023/03/18 05:38:59;;;;;;;2.05;1.70;;;;;;;17.51;52.63;100520.91;20839304;28;20041;-84
2023/03/18 05:49:01;;;;;;;2.60;1.85;;;;;;;17.54;52.72;100534.91;20828024;28;20119;-84
2023/03/18 05:59:14;;;;;;;2.17;1.60;;;;;;;17.54;52.66;100537.59;20829896;28;20045;-84
2023/03/18 06:09:21;;;;;;;1.95;1.63;;;;;;;17.54;52.89;100534.91;20866294;28;20114;-84
2023/03/18 06:19:24;;;;;;;1.80;1.60;;;;;;;17.54;52.79;100537.59;20803902;28;20092;-84
2023/03/18 06:29:25;;;;;;;2.50;1.58;;;;;;;17.54;52.87;100553.75;20841734;28;20471;-84
2023/03/18 06:39:31;;;;;;;1.85;1.65;;;;;;;17.53;52.95;100562.81;20854625;28;20107;-84
2023/03/18 06:49:37;;;;;;;2.05;1.80;;;;;;;17.54;53.07;100587.91;20855219;28;20052;-84
2023/03/18 06:59:45;;;;;;;2.40;2.10;;;;;;;17.51;52.91;100594.41;20862241;28;20062;-84
2023/03/18 07:09:47;;;;;;;3.08;1.85;;;;;;;17.42;53.12;100587.19;20847667;28;20068;-84
2023/03/18 07:19:49;;;;;;;1.85;1.55;;;;;;;17.55;53.22;100608.44;20842127;28;20064;-83
2023/03/18 07:29:51;;;;;;;3.05;2.10;;;;;;;17.57;53.23;100624.44;20824713;28;20135;-84
2023/03/18 07:39:53;;;;;;;2.28;1.60;;;;;;;17.57;53.41;100643.28;20839131;28;20259;-86
2023/03/18 07:49:56;;;;;;;2.67;1.92;;;;;;;17.49;53.25;100644.84;20862752;28;20048;-86
2023/03/18 07:59:58;;;;;;;2.10;1.60;;;;;;;17.33;53.57;100634.63;20855480;28;20146;-86
2023/03/18 08:09:59;;;;;;;2.40;1.73;;;;;;;17.54;53.72;100647.97;20886647;28;20073;-86
2023/03/18 08:20:01;;;;;;;3.03;2.10;;;;;;;17.56;53.75;100665.81;20836072;28;20501;-84
2023/03/18 08:30:03;;;;;;;2.17;1.70;;;;;;;17.56;54.14;100677.44;20868759;28;20059;-86
2023/03/18 08:40:08;;;;;;;2.60;1.70;;;;;;;17.54;54.36;100674.03;20869475;28;20091;-86
2023/03/18 08:50:10;;;;;;;3.65;2.40;;;;;;;17.59;54.88;100681.69;20846149;28;20126;-86
2023/03/18 09:00:14;;;;;;;3.03;2.03;;;;;;;17.66;55.13;100674.75;20836223;28;20041;-86
2023/03/18 09:10:17;;;;;;;1.77;1.55;;;;;;;17.58;54.42;100653.94;20846246;28;20519;-86
2023/03/18 09:20:21;;;;;;;1.90;1.45;;;;;;;17.77;53.99;100673.75;20875205;28;20402;-85
2023/03/18 10:07:18;;;;;;;3.65;2.72;;;;;;;17.88;53.85;100729.34;20873608;28;20041;-86
2023/03/18 10:17:26;;;;;;;3.28;2.10;;;;;;;17.71;53.55;100699.44;20857809;28;20068;-86
2023/03/18 10:28:04;;;;;;;2.65;2.03;;;;;;;17.89;53.81;100741.81;20857457;28;20077;-87
2023/03/18 10:38:23;;;;;;;2.50;2.13;;;;;;;17.86;53.76;100734.00;20865548;28;20068;-87
2023/03/18 10:48:33;;;;;;;2.50;2.00;;;;;;;17.91;53.82;100747.91;20857497;28;20076;-87
2023/03/18 10:58:36;;;;;;;3.28;2.17;;;;;;;17.90;53.74;100748.91;20875134;28;20049;-87
2023/03/18 11:08:39;;;;;;;2.85;1.90;;;;;;;17.90;53.77;100755.16;20887189;28;20501;-86
2023/03/18 11:18:43;;;;;;;1.77;1.67;;;;;;;17.81;53.81;100740.66;20868700;28;20048;-87
2023/03/18 11:28:46;;;;;;;2.23;1.93;;;;;;;17.91;53.91;100750.59;20868556;28;20106;-87
2023/03/18 11:39:00;;;;;;;1.90;1.70;;;;;;;17.91;54.00;100745.22;20884939;28;20045;-87
2023/03/18 11:49:02;;;;;;;2.07;1.50;;;;;;;17.92;53.47;100737.00;20884002;28;20095;-87
2023/03/18 11:59:16;;;;;;;1.67;1.58;;;;;;;17.93;53.85;100727.06;20865355;28;20582;-87
2023/03/18 12:09:26;;;;;;;1.95;1.73;;;;;;;17.94;53.98;100724.25;20882689;28;20045;-87
2023/03/18 12:19:36;;;;;;;2.15;1.52;;;;;;;17.92;53.97;100722.66;20865507;28;20065;-87
2023/03/18 12:29:58;;;;;;;1.58;1.48;;;;;;;17.94;53.95;100723.38;20949336;28;20055;-87
2023/03/18 12:40:28;;;;;;;1.67;1.33;;;;;;;17.94;53.86;100731.47;20926812;28;20072;-87
2023/03/18 12:50:35;;;;;;;1.98;1.40;;;;;;;17.95;53.94;100727.78;20876958;28;20098;-88
2023/03/18 13:00:56;;;;;;;2.35;1.40;;;;;;;17.94;53.97;100723.38;20869299;28;20418;-86
2023/03/18 13:11:07;;;;;;;1.58;1.40;;;;;;;17.95;54.02;100717.00;20874279;28;20048;-86
2023/03/18 13:21:21;;;;;;;1.55;1.45;;;;;;;17.86;53.88;100694.44;20859259;28;20044;-87
2023/03/18 13:31:42;;;;;;;1.38;1.27;;;;;;;17.90;53.97;100693.22;20857429;28;20052;-86
2023/03/18 13:42:10;;;;;;;1.70;1.55;;;;;;;18.00;53.79;100717.44;20857883;28;20124;-86
2023/03/18 13:52:25;;;;;;;1.40;1.30;;;;;;;17.95;54.09;100709.78;20834418;28;20041;-86
2023/03/18 14:02:28;;;;;;;2.17;1.50;;;;;;;18.00;54.01;100706.66;20842971;28;20104;-82
2023/03/18 14:36:56;;;;;;;1.30;1.20;;;;;;;18.28;55.66;100679.88;20847048;28;20048;-83
2023/03/18 14:46:59;;;;;;;1.73;1.30;;;;;;;18.28;55.19;100671.78;20890898;28;20437;-88
2023/03/18 14:57:03;;;;;;;1.60;1.50;;;;;;;18.24;55.33;100673.06;20848519;28;20122;-87
2023/03/18 15:07:06;;;;;;;1.60;1.33;;;;;;;18.26;54.91;100671.91;20863455;28;20045;-88
2023/03/18 15:17:14;;;;;;;3.30;1.30;;;;;;;18.24;54.79;100671.22;20832555;28;20128;-86
2023/03/18 15:27:19;;;;;;;2.80;1.73;;;;;;;18.23;54.71;100661.44;20837129;28;20120;-85
2023/03/18 15:37:24;;;;;;;;;;;;;;;18.22;54.85;100658.91;20848129;28;20041;-92
2023/03/18 15:47:30;;;;;;;1.33;1.23;;;;;;;18.08;55.53;100661.03;20855633;28;19921;-81
2023/03/18 15:57:43;;;;;;;2.28;1.23;;;;;;;18.01;55.68;100654.50;20838584;28;20055;-85
2023/03/18 16:07:45;;;;;;;3.03;1.63;;;;;;;17.97;55.65;100669.22;20824672;28;20049;-83
2023/03/18 16:17:48;;;;;;;2.10;1.42;;;;;;;17.93;55.96;100700.13;20857251;28;20543;-85
2023/03/18 16:27:52;;;;;;;1.88;1.30;;;;;;;17.90;56.00;100738.13;20841387;28;20126;-82
2023/03/18 16:37:54;;;;;;;2.30;1.50;;;;;;;17.85;56.35;100759.25;20784588;28;20709;-84
2023/03/18 16:48:05;;;;;;;3.45;1.60;;;;;;;17.81;56.58;100726.34;20789881;28;20044;-83
2023/03/18 16:58:10;;;;;;;2.13;1.10;;;;;;;17.69;56.89;100690.63;20810391;28;20059;-83
2023/03/18 17:08:11;;;;;;;1.83;1.30;;;;;;;17.82;57.13;100720.84;20790909;28;20048;-82
2023/03/18 17:18:16;;;;;;;1.60;1.13;;;;;;;17.81;57.58;100729.03;20781546;28;20694;-84
2023/03/18 17:28:33;;;;;;;2.03;0.93;;;;;;;17.74;57.67;100696.44;20812328;28;20053;-82
2023/03/18 17:38:35;;;;;;;1.30;1.05;;;;;;;17.61;58.07;100672.47;20790484;28;20413;-83
2023/03/18 17:48:38;;;;;;;1.30;1.00;;;;;;;17.77;58.34;100706.94;20799069;28;20197;-83
2023/03/18 17:58:43;;;;;;;1.20;1.10;;;;;;;17.76;58.45;100716.00;20830943;28;20056;-82
2023/03/18 18:08:45;;;;;;;1.52;1.17;;;;;;;17.76;58.58;100731.28;20877044;28;20052;-84
2023/03/18 18:18:47;;;;;;;1.30;0.98;;;;;;;17.75;58.78;100726.91;20836328;28;20619;-82
2023/03/18 18:28:51;;;;;;;0.88;0.80;;;;;;;17.73;59.08;100732.44;20832267;28;20079;-86
2023/03/18 18:38:53;;;;;;;1.75;1.00;;;;;;;17.74;59.22;100730.59;20855748;28;20476;-81
2023/03/18 18:48:55;;;;;;;2.45;1.27;;;;;;;17.60;60.26;100730.00;20883270;28;20493;-83
2023/03/18 18:58:58;;;;;;;1.80;1.15;;;;;;;17.72;59.71;100736.13;20870050;28;20040;-82
2023/03/18 19:09:00;;;;;;;1.88;1.05;;;;;;;17.71;59.84;100734.44;20880291;28;20087;-82
2023/03/18 19:19:02;;;;;;;2.50;1.17;;;;;;;17.71;60.02;100744.34;20876792;28;20041;-82
2023/03/18 19:29:04;;;;;;;1.75;1.02;;;;;;;17.70;60.04;100740.81;20842979;28;20066;-82
2023/03/18 19:39:12;;;;;;;1.85;1.02;;;;;;;17.68;60.04;100740.94;20857066;28;20045;-83
2023/03/18 19:49:19;;;;;;;1.35;1.23;;;;;;;17.68;60.00;100740.09;20891207;28;20041;-82
2023/03/18 19:59:23;;;;;;;1.67;0.90;;;;;;;17.67;60.07;100741.06;20847588;28;20045;-82
2023/03/18 20:09:25;;;;;;;1.58;1.00;;;;;;;17.67;59.99;100741.91;20869222;28;20067;-82
2023/03/18 20:19:26;;;;;;;2.45;1.45;;;;;;;17.66;59.98;100747.44;20841619;28;20052;-82
2023/03/18 20:29:28;;;;;;;1.42;1.30;;;;;;;17.65;59.87;100756.50;20843211;28;20107;-82
2023/03/18 20:39:30;;;;;;;1.42;0.90;;;;;;;17.64;59.88;100747.59;20864235;28;20110;-82
2023/03/18 20:49:32;;;;;;;2.42;1.58;;;;;;;17.63;59.72;100758.47;20861896;28;20493;-82
2023/03/18 20:59:34;;;;;;;1.20;1.00;;;;;;;17.61;59.89;100765.84;20829475;28;20059;-82
2023/03/18 21:09:36;;;;;;;2.83;1.38;;;;;;;17.36;59.70;100733.91;20850234;28;20045;-82
2023/03/18 21:19:39;;;;;;;1.55;1.20;;;;;;;17.62;59.71;100762.16;20862284;28;20056;-81
2023/03/18 21:29:41;;;;;;;1.65;1.30;;;;;;;17.57;59.48;100748.25;20846442;28;20049;-82
2023/03/18 21:39:42;;;;;;;2.10;1.40;;;;;;;17.60;59.53;100748.84;20836919;28;20083;-82
2023/03/18 21:49:45;;;;;;;2.65;1.70;;;;;;;17.60;59.37;100748.84;20854427;28;20124;-82
2023/03/18 21:59:48;;;;;;;1.85;1.48;;;;;;;17.59;59.54;100743.59;20839028;28;20470;-82
2023/03/18 22:09:49;;;;;;;1.75;1.65;;;;;;;17.58;59.36;100734.69;20863127;28;20394;-82
2023/03/18 22:19:52;;;;;;;2.10;1.75;;;;;;;17.58;59.40;100728.44;20840602;28;20049;-82
2023/03/18 22:29:56;;;;;;;1.98;1.48;;;;;;;17.57;59.37;100749.13;20871713;28;20051;-82
2023/03/18 22:39:58;;;;;;;1.40;1.30;;;;;;;17.57;59.42;100759.91;20839162;28;20164;-82
2023/03/18 22:50:01;;;;;;;1.98;1.60;;;;;;;17.49;59.41;100733.66;20834766;28;20033;-82
2023/03/18 23:00:15;;;;;;;2.72;1.95;;;;;;;17.45;59.41;100721.47;20872859;28;20110;-82
2023/03/18 23:10:18;;;;;;;1.92;1.63;;;;;;;17.56;59.49;100736.66;20868056;28;20049;-83
2023/03/18 23:20:19;;;;;;;2.30;1.90;;;;;;;17.56;59.40;100738.47;20866225;28;20140;-82
2023/03/18 23:30:21;;;;;;;2.65;1.75;;;;;;;17.44;59.50;100711.69;20826951;28;20049;-82
2023/03/18 23:40:23;;;;;;;1.67;1.58;;;;;;;17.54;59.44;100734.09;20838130;28;20045;-82
2023/03/18 23:50:25;;;;;;;2.30;1.80;;;;;;;17.54;59.39;100720.63;20847409;28;20144;-83
